Nordic Stockholm — 2DKI2 — position and weather

sailwx.info

Track history (hours):
 
Tides and Currents Weather Stations Pressure Air Temp Water Temp Dewpoint Dewpoint Depression Visibility Wind Speed Wind Dir Waves Ship Positions

Nordic Stockholm

Last reported at 2015-Sep-01 13:21 UTC. Time now 2015-Sep-03 12:53 UTC.
Position N 36°56' E 006°55'.

Length 180 m; draft 10 m.

Type: Cargo ship. MMSI: 235079725.

Date/timePositionNaut miles runAvg speedWind from/ knotsBaromVisibWave heightAir tempDewpointWater temp
2015-Sep-01 13:21N 36°56' E 006°55'0 0.0
2015-Aug-31 19:18N 36°56' E 006°55'0 0.0
2015-Aug-31 18:33N 36°56' E 006°54'0 0.0
2015-Aug-29 21:27N 36°56' E 006°54'  
2015-Aug-27 03:28N 37°16' E 007°45'9113.1
2015-Aug-26 20:33N 37°32' E 009°37'3712.4
2015-Aug-26 17:33N 37°36' E 010°24'1312.4
2015-Aug-26 16:33N 37°33' E 010°39'1412.2
2015-Aug-26 15:26N 37°30' E 010°56'1112.5
2015-Aug-26 14:33N 37°28' E 011°09'1312.5
2015-Aug-26 13:33N 37°22' E 011°23'1512.8
2015-Aug-26 12:23N 37°15' E 011°40'3612.6
2015-Aug-26 09:32N 37°00' E 012°21'1212.1
2015-Aug-26 08:33N 36°56' E 012°35'1211.9
2015-Aug-26 07:33N 36°50' E 012°48'1212.2
2015-Aug-26 06:33N 36°46' E 013°02'1212.2
2015-Aug-26 05:33N 36°40' E 013°16'1212.4
2015-Aug-26 04:33N 36°35' E 013°30'1312.6
2015-Aug-26 03:33N 36°30' E 013°44'1312.6
2015-Aug-26 02:33N 36°27' E 013°60'1312.8
2015-Aug-26 01:33N 36°27' E 014°15'1313.0
2015-Aug-26 00:33N 36°26' E 014°32'1312.8
2015-Aug-25 23:31N 36°26' E 014°48'1312.8
2015-Aug-25 22:33N 36°26' E 015°04'1312.7
2015-Aug-25 21:33N 36°26' E 015°20'1312.6
2015-Aug-25 20:33N 36°25' E 015°35'3712.4
2015-Aug-25 17:32N 36°24' E 016°21'  
2015-Aug-23 10:33N 40°54' E 028°39'1211.6
2015-Aug-23 09:33N 40°57' E 028°54'0 0.1
2015-Aug-23 06:32N 40°57' E 028°54'  
Track history (hours):
 
Tides and Currents Weather Stations Pressure Air Temp Water Temp Dewpoint Dewpoint Depression Visibility Wind Speed Wind Dir Waves Ship Positions

Nordic Stockholm

Last reported at 2015-Sep-01 13:21 UTC. Time now 2015-Sep-03 12:53 UTC.
Position N 36°56' E 006°55'.

Length 180 m; draft 10 m.

Type: Cargo ship. MMSI: 235079725.

Date/timePositionNaut miles runAvg speedWind from/ knotsBaromVisibWave heightAir tempDewpointWater temp
2015-Sep-01 13:21N 36°56' E 006°55'0 0.0
2015-Aug-31 19:18N 36°56' E 006°55'0 0.0
2015-Aug-31 18:33N 36°56' E 006°54'0 0.0
2015-Aug-29 21:27N 36°56' E 006°54'  
2015-Aug-27 03:28N 37°16' E 007°45'9113.1
2015-Aug-26 20:33N 37°32' E 009°37'3712.4
2015-Aug-26 17:33N 37°36' E 010°24'1312.4
2015-Aug-26 16:33N 37°33' E 010°39'1412.2
2015-Aug-26 15:26N 37°30' E 010°56'1112.5
2015-Aug-26 14:33N 37°28' E 011°09'1312.5
2015-Aug-26 13:33N 37°22' E 011°23'1512.8
2015-Aug-26 12:23N 37°15' E 011°40'3612.6
2015-Aug-26 09:32N 37°00' E 012°21'1212.1
2015-Aug-26 08:33N 36°56' E 012°35'1211.9
2015-Aug-26 07:33N 36°50' E 012°48'1212.2
2015-Aug-26 06:33N 36°46' E 013°02'1212.2
2015-Aug-26 05:33N 36°40' E 013°16'1212.4
2015-Aug-26 04:33N 36°35' E 013°30'1312.6
2015-Aug-26 03:33N 36°30' E 013°44'1312.6
2015-Aug-26 02:33N 36°27' E 013°60'1312.8
2015-Aug-26 01:33N 36°27' E 014°15'1313.0
2015-Aug-26 00:33N 36°26' E 014°32'1312.8
2015-Aug-25 23:31N 36°26' E 014°48'1312.8
2015-Aug-25 22:33N 36°26' E 015°04'1312.7
2015-Aug-25 21:33N 36°26' E 015°20'1312.6
2015-Aug-25 20:33N 36°25' E 015°35'3712.4
2015-Aug-25 17:32N 36°24' E 016°21'  
2015-Aug-23 10:33N 40°54' E 028°39'1211.6
2015-Aug-23 09:33N 40°57' E 028°54'0 0.1
2015-Aug-23 06:32N 40°57' E 028°54'  

Dump ship's entire track history